sensor_id;sensor_type;location;lat;lon;timestamp;P1;durP1;ratioP1;P2;durP2;ratioP2
54408;SDS011;40315;48.620;9.828;2024-02-26T00:00:23;3.67;;;3.30;;
54408;SDS011;40315;48.620;9.828;2024-02-26T00:02:50;4.13;;;3.22;;
54408;SDS011;40315;48.620;9.828;2024-02-26T00:05:19;4.82;;;3.08;;
54408;SDS011;40315;48.620;9.828;2024-02-26T00:07:47;4.70;;;3.13;;
54408;SDS011;40315;48.620;9.828;2024-02-26T00:10:15;3.90;;;3.05;;
54408;SDS011;40315;48.620;9.828;2024-02-26T00:12:43;4.57;;;3.30;;
54408;SDS011;40315;48.620;9.828;2024-02-26T00:15:10;3.80;;;3.15;;
54408;SDS011;40315;48.620;9.828;2024-02-26T00:17:38;3.35;;;3.05;;
54408;SDS011;40315;48.620;9.828;2024-02-26T00:20:07;3.90;;;3.00;;
54408;SDS011;40315;48.620;9.828;2024-02-26T00:22:38;3.33;;;2.90;;
54408;SDS011;40315;48.620;9.828;2024-02-26T00:25:06;3.83;;;2.92;;
54408;SDS011;40315;48.620;9.828;2024-02-26T00:27:33;2.95;;;2.65;;
54408;SDS011;40315;48.620;9.828;2024-02-26T00:30:01;3.80;;;2.95;;
54408;SDS011;40315;48.620;9.828;2024-02-26T00:32:28;3.33;;;2.55;;
54408;SDS011;40315;48.620;9.828;2024-02-26T00:34:55;4.65;;;3.28;;
54408;SDS011;40315;48.620;9.828;2024-02-26T00:37:22;4.15;;;2.92;;
54408;SDS011;40315;48.620;9.828;2024-02-26T00:39:49;3.38;;;3.00;;
54408;SDS011;40315;48.620;9.828;2024-02-26T00:42:18;3.35;;;2.92;;
54408;SDS011;40315;48.620;9.828;2024-02-26T00:44:45;3.33;;;3.00;;
54408;SDS011;40315;48.620;9.828;2024-02-26T00:47:15;5.13;;;3.47;;
54408;SDS011;40315;48.620;9.828;2024-02-26T00:49:42;4.78;;;3.40;;
54408;SDS011;40315;48.620;9.828;2024-02-26T00:52:10;5.32;;;3.22;;
54408;SDS011;40315;48.620;9.828;2024-02-26T00:54:36;4.05;;;3.20;;
54408;SDS011;40315;48.620;9.828;2024-02-26T00:57:06;4.15;;;3.15;;
54408;SDS011;40315;48.620;9.828;2024-02-26T00:59:33;4.18;;;3.20;;
54408;SDS011;40315;48.620;9.828;2024-02-26T01:02:03;5.72;;;3.50;;
54408;SDS011;40315;48.620;9.828;2024-02-26T01:04:33;5.65;;;3.78;;
54408;SDS011;40315;48.620;9.828;2024-02-26T01:07:00;4.68;;;3.40;;
54408;SDS011;40315;48.620;9.828;2024-02-26T01:09:28;4.00;;;3.45;;
54408;SDS011;40315;48.620;9.828;2024-02-26T01:11:55;3.45;;;3.10;;
54408;SDS011;40315;48.620;9.828;2024-02-26T01:14:22;4.82;;;3.50;;
54408;SDS011;40315;48.620;9.828;2024-02-26T01:16:49;5.18;;;3.33;;
54408;SDS011;40315;48.620;9.828;2024-02-26T01:19:16;5.63;;;3.28;;
54408;SDS011;40315;48.620;9.828;2024-02-26T01:21:44;4.85;;;3.70;;
54408;SDS011;40315;48.620;9.828;2024-02-26T01:24:13;6.20;;;3.90;;
54408;SDS011;40315;48.620;9.828;2024-02-26T01:26:40;4.10;;;3.45;;
54408;SDS011;40315;48.620;9.828;2024-02-26T01:29:07;6.47;;;3.72;;
54408;SDS011;40315;48.620;9.828;2024-02-26T01:31:34;4.93;;;3.53;;
54408;SDS011;40315;48.620;9.828;2024-02-26T01:34:04;4.18;;;3.40;;
54408;SDS011;40315;48.620;9.828;2024-02-26T01:36:31;5.10;;;3.88;;
54408;SDS011;40315;48.620;9.828;2024-02-26T01:39:00;5.93;;;3.88;;
54408;SDS011;40315;48.620;9.828;2024-02-26T01:41:28;4.85;;;3.40;;
54408;SDS011;40315;48.620;9.828;2024-02-26T01:43:58;5.22;;;3.92;;
54408;SDS011;40315;48.620;9.828;2024-02-26T01:46:25;5.55;;;4.15;;
54408;SDS011;40315;48.620;9.828;2024-02-26T01:48:55;5.45;;;3.85;;
54408;SDS011;40315;48.620;9.828;2024-02-26T01:51:22;6.95;;;3.95;;
54408;SDS011;40315;48.620;9.828;2024-02-26T01:53:49;3.60;;;3.30;;
54408;SDS011;40315;48.620;9.828;2024-02-26T01:56:18;4.10;;;2.85;;
54408;SDS011;40315;48.620;9.828;2024-02-26T01:58:46;4.55;;;3.90;;
54408;SDS011;40315;48.620;9.828;2024-02-26T02:03:56;4.82;;;3.92;;
54408;SDS011;40315;48.620;9.828;2024-02-26T02:06:24;4.32;;;3.88;;
54408;SDS011;40315;48.620;9.828;2024-02-26T02:08:53;5.82;;;4.10;;
54408;SDS011;40315;48.620;9.828;2024-02-26T02:11:22;4.68;;;3.90;;
54408;SDS011;40315;48.620;9.828;2024-02-26T02:13:49;5.97;;;3.50;;
54408;SDS011;40315;48.620;9.828;2024-02-26T02:16:16;4.90;;;3.50;;
54408;SDS011;40315;48.620;9.828;2024-02-26T02:18:43;4.25;;;3.20;;
54408;SDS011;40315;48.620;9.828;2024-02-26T02:21:12;5.95;;;3.80;;
54408;SDS011;40315;48.620;9.828;2024-02-26T02:23:39;4.93;;;3.30;;
54408;SDS011;40315;48.620;9.828;2024-02-26T02:26:11;4.97;;;3.75;;
54408;SDS011;40315;48.620;9.828;2024-02-26T02:28:38;4.57;;;3.83;;
54408;SDS011;40315;48.620;9.828;2024-02-26T02:31:06;4.63;;;3.58;;
54408;SDS011;40315;48.620;9.828;2024-02-26T02:33:34;4.88;;;3.50;;
54408;SDS011;40315;48.620;9.828;2024-02-26T02:36:01;5.95;;;3.38;;
54408;SDS011;40315;48.620;9.828;2024-02-26T02:38:30;5.55;;;3.55;;
54408;SDS011;40315;48.620;9.828;2024-02-26T02:40:59;5.10;;;3.85;;
54408;SDS011;40315;48.620;9.828;2024-02-26T02:43:26;4.70;;;3.60;;
54408;SDS011;40315;48.620;9.828;2024-02-26T02:45:53;4.80;;;3.50;;
54408;SDS011;40315;48.620;9.828;2024-02-26T02:48:20;4.07;;;3.42;;
54408;SDS011;40315;48.620;9.828;2024-02-26T02:50:47;4.45;;;3.72;;
54408;SDS011;40315;48.620;9.828;2024-02-26T02:53:14;7.07;;;3.95;;
54408;SDS011;40315;48.620;9.828;2024-02-26T02:55:45;6.57;;;4.25;;
54408;SDS011;40315;48.620;9.828;2024-02-26T02:58:12;6.32;;;4.00;;
54408;SDS011;40315;48.620;9.828;2024-02-26T03:00:39;5.05;;;3.78;;
54408;SDS011;40315;48.620;9.828;2024-02-26T03:03:06;5.15;;;3.90;;
54408;SDS011;40315;48.620;9.828;2024-02-26T03:05:33;4.53;;;3.60;;
54408;SDS011;40315;48.620;9.828;2024-02-26T03:07:59;4.88;;;3.83;;
54408;SDS011;40315;48.620;9.828;2024-02-26T03:10:26;3.85;;;3.05;;
54408;SDS011;40315;48.620;9.828;2024-02-26T03:12:55;5.38;;;3.22;;
54408;SDS011;40315;48.620;9.828;2024-02-26T03:15:22;4.25;;;3.53;;
54408;SDS011;40315;48.620;9.828;2024-02-26T03:17:49;4.57;;;3.78;;
54408;SDS011;40315;48.620;9.828;2024-02-26T03:20:16;3.90;;;3.30;;
54408;SDS011;40315;48.620;9.828;2024-02-26T03:22:44;11.57;;;10.38;;
54408;SDS011;40315;48.620;9.828;2024-02-26T03:25:11;5.35;;;4.22;;
54408;SDS011;40315;48.620;9.828;2024-02-26T03:27:38;6.15;;;4.20;;
54408;SDS011;40315;48.620;9.828;2024-02-26T03:30:07;6.55;;;4.47;;
54408;SDS011;40315;48.620;9.828;2024-02-26T03:32:34;5.35;;;4.32;;
54408;SDS011;40315;48.620;9.828;2024-02-26T03:35:01;4.55;;;4.13;;
54408;SDS011;40315;48.620;9.828;2024-02-26T03:37:28;5.55;;;4.57;;
54408;SDS011;40315;48.620;9.828;2024-02-26T03:39:55;5.65;;;4.57;;
54408;SDS011;40315;48.620;9.828;2024-02-26T03:42:23;5.70;;;4.50;;
54408;SDS011;40315;48.620;9.828;2024-02-26T03:44:50;6.85;;;4.75;;
54408;SDS011;40315;48.620;9.828;2024-02-26T03:47:18;7.10;;;4.25;;
54408;SDS011;40315;48.620;9.828;2024-02-26T03:49:45;5.97;;;4.35;;
54408;SDS011;40315;48.620;9.828;2024-02-26T03:52:12;6.60;;;4.60;;
54408;SDS011;40315;48.620;9.828;2024-02-26T03:54:42;6.45;;;4.20;;
54408;SDS011;40315;48.620;9.828;2024-02-26T03:57:09;6.40;;;4.43;;
54408;SDS011;40315;48.620;9.828;2024-02-26T03:59:36;5.70;;;4.05;;
54408;SDS011;40315;48.620;9.828;2024-02-26T04:02:04;7.43;;;5.03;;
54408;SDS011;40315;48.620;9.828;2024-02-26T04:04:34;7.05;;;5.30;;
54408;SDS011;40315;48.620;9.828;2024-02-26T04:07:02;7.38;;;4.47;;
54408;SDS011;40315;48.620;9.828;2024-02-26T04:09:30;6.22;;;4.43;;
54408;SDS011;40315;48.620;9.828;2024-02-26T04:11:57;6.60;;;4.40;;
54408;SDS011;40315;48.620;9.828;2024-02-26T04:14:24;5.72;;;4.78;;
54408;SDS011;40315;48.620;9.828;2024-02-26T04:16:51;6.53;;;4.30;;
54408;SDS011;40315;48.620;9.828;2024-02-26T04:19:19;6.20;;;3.85;;
54408;SDS011;40315;48.620;9.828;2024-02-26T04:21:48;7.45;;;4.63;;
54408;SDS011;40315;48.620;9.828;2024-02-26T04:24:15;5.85;;;4.43;;
54408;SDS011;40315;48.620;9.828;2024-02-26T04:26:41;7.07;;;4.80;;
54408;SDS011;40315;48.620;9.828;2024-02-26T04:29:08;7.57;;;5.43;;
54408;SDS011;40315;48.620;9.828;2024-02-26T04:31:36;8.30;;;5.47;;
54408;SDS011;40315;48.620;9.828;2024-02-26T04:36:38;7.22;;;5.07;;
54408;SDS011;40315;48.620;9.828;2024-02-26T04:39:07;8.18;;;5.10;;
54408;SDS011;40315;48.620;9.828;2024-02-26T04:41:35;9.05;;;5.00;;
54408;SDS011;40315;48.620;9.828;2024-02-26T04:44:02;6.82;;;4.82;;
54408;SDS011;40315;48.620;9.828;2024-02-26T04:46:29;6.60;;;4.68;;
54408;SDS011;40315;48.620;9.828;2024-02-26T04:48:56;7.10;;;5.13;;
54408;SDS011;40315;48.620;9.828;2024-02-26T04:51:23;7.50;;;4.97;;
54408;SDS011;40315;48.620;9.828;2024-02-26T04:53:51;3.88;;;3.00;;
54408;SDS011;40315;48.620;9.828;2024-02-26T04:56:21;4.53;;;3.42;;
54408;SDS011;40315;48.620;9.828;2024-02-26T04:58:48;5.28;;;3.80;;
54408;SDS011;40315;48.620;9.828;2024-02-26T05:01:15;6.07;;;4.30;;
54408;SDS011;40315;48.620;9.828;2024-02-26T05:03:42;5.65;;;4.30;;
54408;SDS011;40315;48.620;9.828;2024-02-26T05:06:09;5.25;;;3.80;;
54408;SDS011;40315;48.620;9.828;2024-02-26T05:08:36;4.43;;;3.75;;
54408;SDS011;40315;48.620;9.828;2024-02-26T05:11:03;5.00;;;3.95;;
54408;SDS011;40315;48.620;9.828;2024-02-26T05:13:32;6.53;;;4.43;;
54408;SDS011;40315;48.620;9.828;2024-02-26T05:15:59;5.40;;;3.97;;
54408;SDS011;40315;48.620;9.828;2024-02-26T05:18:26;4.22;;;3.83;;
54408;SDS011;40315;48.620;9.828;2024-02-26T05:20:54;6.28;;;4.25;;
54408;SDS011;40315;48.620;9.828;2024-02-26T05:23:21;5.10;;;3.60;;
54408;SDS011;40315;48.620;9.828;2024-02-26T05:25:48;5.05;;;4.15;;
54408;SDS011;40315;48.620;9.828;2024-02-26T05:28:15;5.43;;;4.32;;
54408;SDS011;40315;48.620;9.828;2024-02-26T05:30:47;5.68;;;4.22;;
54408;SDS011;40315;48.620;9.828;2024-02-26T05:33:14;6.18;;;3.88;;
54408;SDS011;40315;48.620;9.828;2024-02-26T05:35:41;4.75;;;3.80;;
54408;SDS011;40315;48.620;9.828;2024-02-26T05:38:10;5.05;;;3.83;;
54408;SDS011;40315;48.620;9.828;2024-02-26T05:40:37;4.63;;;3.88;;
54408;SDS011;40315;48.620;9.828;2024-02-26T05:43:04;4.72;;;3.83;;
54408;SDS011;40315;48.620;9.828;2024-02-26T05:45:31;3.90;;;3.50;;
54408;SDS011;40315;48.620;9.828;2024-02-26T05:47:59;5.50;;;3.85;;
54408;SDS011;40315;48.620;9.828;2024-02-26T05:50:26;7.82;;;3.92;;
54408;SDS011;40315;48.620;9.828;2024-02-26T05:52:55;4.32;;;3.28;;
54408;SDS011;40315;48.620;9.828;2024-02-26T05:55:22;4.43;;;3.75;;
54408;SDS011;40315;48.620;9.828;2024-02-26T05:57:51;4.18;;;3.58;;
54408;SDS011;40315;48.620;9.828;2024-02-26T06:00:19;4.22;;;3.22;;
54408;SDS011;40315;48.620;9.828;2024-02-26T06:02:46;5.68;;;3.60;;
54408;SDS011;40315;48.620;9.828;2024-02-26T06:05:14;6.03;;;4.95;;
54408;SDS011;40315;48.620;9.828;2024-02-26T06:07:41;8.65;;;4.57;;
54408;SDS011;40315;48.620;9.828;2024-02-26T06:10:08;6.25;;;4.13;;
54408;SDS011;40315;48.620;9.828;2024-02-26T06:12:36;7.25;;;4.15;;
54408;SDS011;40315;48.620;9.828;2024-02-26T06:15:03;6.75;;;4.47;;
54408;SDS011;40315;48.620;9.828;2024-02-26T06:17:33;6.65;;;4.57;;
54408;SDS011;40315;48.620;9.828;2024-02-26T06:20:00;6.28;;;4.35;;
54408;SDS011;40315;48.620;9.828;2024-02-26T06:22:30;6.68;;;4.35;;
54408;SDS011;40315;48.620;9.828;2024-02-26T06:25:00;5.75;;;4.22;;
54408;SDS011;40315;48.620;9.828;2024-02-26T06:27:26;6.30;;;4.68;;
54408;SDS011;40315;48.620;9.828;2024-02-26T06:29:53;6.28;;;4.32;;
54408;SDS011;40315;48.620;9.828;2024-02-26T06:32:20;4.93;;;3.92;;
54408;SDS011;40315;48.620;9.828;2024-02-26T06:34:48;7.25;;;4.40;;
54408;SDS011;40315;48.620;9.828;2024-02-26T06:37:15;5.70;;;4.35;;
54408;SDS011;40315;48.620;9.828;2024-02-26T06:39:43;5.70;;;4.60;;
54408;SDS011;40315;48.620;9.828;2024-02-26T06:42:10;9.75;;;5.15;;
54408;SDS011;40315;48.620;9.828;2024-02-26T06:44:37;6.38;;;4.82;;
54408;SDS011;40315;48.620;9.828;2024-02-26T06:47:04;6.95;;;4.68;;
54408;SDS011;40315;48.620;9.828;2024-02-26T06:49:31;7.97;;;5.25;;
54408;SDS011;40315;48.620;9.828;2024-02-26T06:52:00;6.10;;;4.82;;
54408;SDS011;40315;48.620;9.828;2024-02-26T06:54:30;9.60;;;4.40;;
54408;SDS011;40315;48.620;9.828;2024-02-26T06:56:58;8.73;;;5.07;;
54408;SDS011;40315;48.620;9.828;2024-02-26T06:59:25;7.53;;;4.25;;
54408;SDS011;40315;48.620;9.828;2024-02-26T07:01:54;8.80;;;5.05;;
54408;SDS011;40315;48.620;9.828;2024-02-26T07:04:21;5.85;;;4.93;;
54408;SDS011;40315;48.620;9.828;2024-02-26T07:06:48;7.50;;;5.28;;
54408;SDS011;40315;48.620;9.828;2024-02-26T07:09:15;9.00;;;5.97;;
54408;SDS011;40315;48.620;9.828;2024-02-26T07:11:42;6.35;;;4.90;;
54408;SDS011;40315;48.620;9.828;2024-02-26T07:14:11;9.57;;;6.00;;
54408;SDS011;40315;48.620;9.828;2024-02-26T07:16:41;8.35;;;5.18;;
54408;SDS011;40315;48.620;9.828;2024-02-26T07:19:10;8.23;;;5.55;;
54408;SDS011;40315;48.620;9.828;2024-02-26T07:21:37;6.63;;;4.88;;
54408;SDS011;40315;48.620;9.828;2024-02-26T07:24:05;8.30;;;6.10;;
54408;SDS011;40315;48.620;9.828;2024-02-26T07:26:32;8.40;;;5.22;;
54408;SDS011;40315;48.620;9.828;2024-02-26T07:28:59;7.18;;;5.68;;
54408;SDS011;40315;48.620;9.828;2024-02-26T07:31:27;9.30;;;5.75;;
54408;SDS011;40315;48.620;9.828;2024-02-26T07:33:54;8.77;;;6.13;;
54408;SDS011;40315;48.620;9.828;2024-02-26T07:36:21;8.00;;;6.28;;
54408;SDS011;40315;48.620;9.828;2024-02-26T07:38:48;10.10;;;6.80;;
54408;SDS011;40315;48.620;9.828;2024-02-26T07:41:17;10.07;;;6.35;;
54408;SDS011;40315;48.620;9.828;2024-02-26T07:43:44;8.27;;;6.15;;
54408;SDS011;40315;48.620;9.828;2024-02-26T07:46:11;9.68;;;6.57;;
54408;SDS011;40315;48.620;9.828;2024-02-26T07:48:39;7.68;;;5.53;;
54408;SDS011;40315;48.620;9.828;2024-02-26T07:51:07;9.82;;;6.35;;
54408;SDS011;40315;48.620;9.828;2024-02-26T07:53:34;8.93;;;6.30;;
54408;SDS011;40315;48.620;9.828;2024-02-26T07:56:01;9.65;;;6.38;;
54408;SDS011;40315;48.620;9.828;2024-02-26T07:58:28;10.32;;;6.68;;
54408;SDS011;40315;48.620;9.828;2024-02-26T08:00:55;8.60;;;6.63;;
54408;SDS011;40315;48.620;9.828;2024-02-26T08:03:24;8.93;;;6.25;;
54408;SDS011;40315;48.620;9.828;2024-02-26T08:05:52;80.88;;;27.98;;
54408;SDS011;40315;48.620;9.828;2024-02-26T08:08:20;80.40;;;27.60;;
54408;SDS011;40315;48.620;9.828;2024-02-26T08:10:47;114.88;;;39.03;;
54408;SDS011;40315;48.620;9.828;2024-02-26T08:13:14;17.90;;;9.85;;
54408;SDS011;40315;48.620;9.828;2024-02-26T08:15:43;9.35;;;6.38;;
54408;SDS011;40315;48.620;9.828;2024-02-26T08:18:10;10.27;;;7.22;;
54408;SDS011;40315;48.620;9.828;2024-02-26T08:20:37;8.70;;;6.03;;
54408;SDS011;40315;48.620;9.828;2024-02-26T08:23:06;10.70;;;6.20;;
54408;SDS011;40315;48.620;9.828;2024-02-26T08:25:33;8.38;;;5.75;;
54408;SDS011;40315;48.620;9.828;2024-02-26T08:28:00;8.52;;;6.15;;
54408;SDS011;40315;48.620;9.828;2024-02-26T08:30:27;7.80;;;5.85;;
54408;SDS011;40315;48.620;9.828;2024-02-26T08:32:54;8.07;;;5.90;;
54408;SDS011;40315;48.620;9.828;2024-02-26T08:35:23;7.90;;;6.40;;
54408;SDS011;40315;48.620;9.828;2024-02-26T08:37:51;7.65;;;6.18;;
54408;SDS011;40315;48.620;9.828;2024-02-26T08:40:19;8.00;;;5.80;;
54408;SDS011;40315;48.620;9.828;2024-02-26T08:42:46;9.68;;;6.78;;
54408;SDS011;40315;48.620;9.828;2024-02-26T08:45:13;12.10;;;7.47;;
54408;SDS011;40315;48.620;9.828;2024-02-26T08:47:44;10.80;;;6.63;;
54408;SDS011;40315;48.620;9.828;2024-02-26T08:50:11;9.43;;;6.93;;
54408;SDS011;40315;48.620;9.828;2024-02-26T08:52:40;8.02;;;6.47;;
54408;SDS011;40315;48.620;9.828;2024-02-26T08:55:07;9.73;;;6.65;;
54408;SDS011;40315;48.620;9.828;2024-02-26T08:57:36;9.70;;;6.47;;
54408;SDS011;40315;48.620;9.828;2024-02-26T09:00:04;10.30;;;7.28;;
54408;SDS011;40315;48.620;9.828;2024-02-26T09:02:32;11.32;;;7.00;;
54408;SDS011;40315;48.620;9.828;2024-02-26T09:04:59;9.57;;;7.22;;
54408;SDS011;40315;48.620;9.828;2024-02-26T09:07:28;9.65;;;6.53;;
54408;SDS011;40315;48.620;9.828;2024-02-26T09:09:57;9.57;;;6.53;;
54408;SDS011;40315;48.620;9.828;2024-02-26T09:12:24;10.93;;;6.90;;
54408;SDS011;40315;48.620;9.828;2024-02-26T09:14:52;8.13;;;6.05;;
54408;SDS011;40315;48.620;9.828;2024-02-26T09:17:21;10.63;;;7.15;;
54408;SDS011;40315;48.620;9.828;2024-02-26T09:19:48;9.45;;;6.60;;
54408;SDS011;40315;48.620;9.828;2024-02-26T09:22:15;10.25;;;7.13;;
54408;SDS011;40315;48.620;9.828;2024-02-26T09:24:44;9.10;;;6.75;;
54408;SDS011;40315;48.620;9.828;2024-02-26T09:27:12;9.55;;;6.68;;
54408;SDS011;40315;48.620;9.828;2024-02-26T09:29:39;8.13;;;6.57;;
54408;SDS011;40315;48.620;9.828;2024-02-26T09:32:07;9.15;;;7.03;;
54408;SDS011;40315;48.620;9.828;2024-02-26T09:34:34;9.73;;;6.75;;
54408;SDS011;40315;48.620;9.828;2024-02-26T09:37:01;8.10;;;6.20;;
54408;SDS011;40315;48.620;9.828;2024-02-26T09:39:29;10.90;;;7.28;;
54408;SDS011;40315;48.620;9.828;2024-02-26T09:41:58;9.13;;;6.50;;
54408;SDS011;40315;48.620;9.828;2024-02-26T09:44:28;9.25;;;6.35;;
54408;SDS011;40315;48.620;9.828;2024-02-26T09:46:59;10.55;;;7.57;;
54408;SDS011;40315;48.620;9.828;2024-02-26T09:49:27;8.20;;;5.75;;
54408;SDS011;40315;48.620;9.828;2024-02-26T09:51:55;9.38;;;6.18;;
54408;SDS011;40315;48.620;9.828;2024-02-26T09:54:24;8.45;;;6.10;;
54408;SDS011;40315;48.620;9.828;2024-02-26T09:56:53;7.05;;;5.43;;
54408;SDS011;40315;48.620;9.828;2024-02-26T09:59:23;11.15;;;7.57;;
54408;SDS011;40315;48.620;9.828;2024-02-26T10:01:52;8.50;;;6.13;;
54408;SDS011;40315;48.620;9.828;2024-02-26T10:04:20;10.57;;;6.25;;
54408;SDS011;40315;48.620;9.828;2024-02-26T10:06:50;7.82;;;5.70;;
54408;SDS011;40315;48.620;9.828;2024-02-26T10:09:18;10.00;;;5.97;;
54408;SDS011;40315;48.620;9.828;2024-02-26T10:11:45;8.02;;;5.82;;
54408;SDS011;40315;48.620;9.828;2024-02-26T10:14:15;8.00;;;5.60;;
54408;SDS011;40315;48.620;9.828;2024-02-26T10:16:42;6.88;;;5.38;;
54408;SDS011;40315;48.620;9.828;2024-02-26T10:19:18;6.03;;;4.95;;
54408;SDS011;40315;48.620;9.828;2024-02-26T10:21:55;7.80;;;5.18;;
54408;SDS011;40315;48.620;9.828;2024-02-26T10:24:26;7.15;;;4.70;;
54408;SDS011;40315;48.620;9.828;2024-02-26T10:26:56;5.40;;;4.32;;
54408;SDS011;40315;48.620;9.828;2024-02-26T10:29:24;4.57;;;3.83;;
54408;SDS011;40315;48.620;9.828;2024-02-26T10:31:54;5.07;;;4.07;;
54408;SDS011;40315;48.620;9.828;2024-02-26T10:34:22;6.80;;;5.18;;
54408;SDS011;40315;48.620;9.828;2024-02-26T10:36:49;6.88;;;4.88;;
54408;SDS011;40315;48.620;9.828;2024-02-26T10:39:17;7.07;;;5.00;;
54408;SDS011;40315;48.620;9.828;2024-02-26T10:41:44;7.72;;;5.32;;
54408;SDS011;40315;48.620;9.828;2024-02-26T10:44:12;7.50;;;4.80;;
54408;SDS011;40315;48.620;9.828;2024-02-26T10:46:40;6.95;;;4.60;;
54408;SDS011;40315;48.620;9.828;2024-02-26T10:49:12;6.25;;;4.22;;
54408;SDS011;40315;48.620;9.828;2024-02-26T10:51:41;4.95;;;3.92;;
54408;SDS011;40315;48.620;9.828;2024-02-26T10:54:11;3.75;;;2.78;;
54408;SDS011;40315;48.620;9.828;2024-02-26T10:56:43;4.88;;;3.22;;
54408;SDS011;40315;48.620;9.828;2024-02-26T10:59:13;4.55;;;3.08;;
54408;SDS011;40315;48.620;9.828;2024-02-26T11:01:48;2.80;;;2.40;;
54408;SDS011;40315;48.620;9.828;2024-02-26T11:04:16;3.08;;;2.30;;
54408;SDS011;40315;48.620;9.828;2024-02-26T11:06:43;2.65;;;2.10;;
54408;SDS011;40315;48.620;9.828;2024-02-26T11:09:12;2.35;;;2.10;;
54408;SDS011;40315;48.620;9.828;2024-02-26T11:11:40;3.05;;;2.10;;
54408;SDS011;40315;48.620;9.828;2024-02-26T11:14:10;4.65;;;2.50;;
54408;SDS011;40315;48.620;9.828;2024-02-26T11:16:41;4.13;;;2.25;;
54408;SDS011;40315;48.620;9.828;2024-02-26T11:19:12;3.72;;;1.83;;
54408;SDS011;40315;48.620;9.828;2024-02-26T11:21:39;2.33;;;1.80;;
54408;SDS011;40315;48.620;9.828;2024-02-26T11:24:08;1.80;;;1.50;;
54408;SDS011;40315;48.620;9.828;2024-02-26T11:26:39;2.63;;;1.70;;
54408;SDS011;40315;48.620;9.828;2024-02-26T11:29:13;2.65;;;1.60;;
54408;SDS011;40315;48.620;9.828;2024-02-26T11:31:45;2.03;;;1.52;;
54408;SDS011;40315;48.620;9.828;2024-02-26T11:34:15;1.70;;;1.40;;
54408;SDS011;40315;48.620;9.828;2024-02-26T11:36:44;1.80;;;1.33;;
54408;SDS011;40315;48.620;9.828;2024-02-26T11:39:11;2.05;;;1.40;;
54408;SDS011;40315;48.620;9.828;2024-02-26T11:41:43;1.50;;;1.20;;
54408;SDS011;40315;48.620;9.828;2024-02-26T11:44:10;1.70;;;1.38;;
54408;SDS011;40315;48.620;9.828;2024-02-26T11:46:39;2.22;;;1.30;;
54408;SDS011;40315;48.620;9.828;2024-02-26T11:51:59;1.23;;;1.10;;
54408;SDS011;40315;48.620;9.828;2024-02-26T11:54:38;1.40;;;1.13;;
54408;SDS011;40315;48.620;9.828;2024-02-26T11:57:20;1.90;;;1.48;;
54408;SDS011;40315;48.620;9.828;2024-02-26T11:59:48;1.30;;;1.20;;
54408;SDS011;40315;48.620;9.828;2024-02-26T12:05:06;1.55;;;1.20;;
54408;SDS011;40315;48.620;9.828;2024-02-26T12:07:45;1.85;;;1.17;;
54408;SDS011;40315;48.620;9.828;2024-02-26T12:10:15;2.42;;;1.30;;
54408;SDS011;40315;48.620;9.828;2024-02-26T12:12:48;1.67;;;1.23;;
54408;SDS011;40315;48.620;9.828;2024-02-26T12:15:15;3.53;;;1.45;;
54408;SDS011;40315;48.620;9.828;2024-02-26T12:17:48;3.17;;;1.73;;
54408;SDS011;40315;48.620;9.828;2024-02-26T12:20:16;2.58;;;1.40;;
54408;SDS011;40315;48.620;9.828;2024-02-26T12:22:45;2.03;;;1.30;;
54408;SDS011;40315;48.620;9.828;2024-02-26T12:25:12;1.85;;;1.25;;
54408;SDS011;40315;48.620;9.828;2024-02-26T12:27:39;2.00;;;1.40;;
54408;SDS011;40315;48.620;9.828;2024-02-26T12:30:11;1.33;;;1.13;;
54408;SDS011;40315;48.620;9.828;2024-02-26T12:32:41;1.42;;;1.20;;
54408;SDS011;40315;48.620;9.828;2024-02-26T12:35:08;1.70;;;1.33;;
54408;SDS011;40315;48.620;9.828;2024-02-26T12:37:35;2.55;;;1.30;;
54408;SDS011;40315;48.620;9.828;2024-02-26T12:40:04;1.88;;;1.45;;
54408;SDS011;40315;48.620;9.828;2024-02-26T12:42:33;2.28;;;1.50;;
54408;SDS011;40315;48.620;9.828;2024-02-26T12:45:05;1.70;;;1.10;;
54408;SDS011;40315;48.620;9.828;2024-02-26T12:47:36;1.38;;;1.00;;
54408;SDS011;40315;48.620;9.828;2024-02-26T12:50:04;1.83;;;1.20;;
54408;SDS011;40315;48.620;9.828;2024-02-26T12:52:32;1.35;;;1.10;;
54408;SDS011;40315;48.620;9.828;2024-02-26T12:55:01;4.35;;;1.73;;
54408;SDS011;40315;48.620;9.828;2024-02-26T12:57:31;3.35;;;1.15;;
54408;SDS011;40315;48.620;9.828;2024-02-26T12:59:59;1.35;;;1.00;;
54408;SDS011;40315;48.620;9.828;2024-02-26T13:02:27;1.40;;;1.17;;
54408;SDS011;40315;48.620;9.828;2024-02-26T13:04:55;1.55;;;1.00;;
54408;SDS011;40315;48.620;9.828;2024-02-26T13:07:23;1.88;;;1.30;;
54408;SDS011;40315;48.620;9.828;2024-02-26T13:09:50;2.40;;;1.50;;
54408;SDS011;40315;48.620;9.828;2024-02-26T13:12:18;1.80;;;1.33;;
54408;SDS011;40315;48.620;9.828;2024-02-26T13:14:45;1.92;;;1.17;;
54408;SDS011;40315;48.620;9.828;2024-02-26T13:17:12;1.65;;;1.23;;
54408;SDS011;40315;48.620;9.828;2024-02-26T13:19:48;3.15;;;1.52;;
54408;SDS011;40315;48.620;9.828;2024-02-26T13:22:17;2.13;;;1.45;;
54408;SDS011;40315;48.620;9.828;2024-02-26T13:24:53;2.75;;;1.20;;
54408;SDS011;40315;48.620;9.828;2024-02-26T13:27:21;2.92;;;1.42;;
54408;SDS011;40315;48.620;9.828;2024-02-26T13:30:01;2.20;;;1.40;;
54408;SDS011;40315;48.620;9.828;2024-02-26T13:32:32;2.55;;;1.42;;
54408;SDS011;40315;48.620;9.828;2024-02-26T13:35:04;2.13;;;1.70;;
54408;SDS011;40315;48.620;9.828;2024-02-26T13:37:34;2.60;;;1.67;;
54408;SDS011;40315;48.620;9.828;2024-02-26T13:40:04;2.47;;;2.05;;
54408;SDS011;40315;48.620;9.828;2024-02-26T13:42:32;3.35;;;2.17;;
54408;SDS011;40315;48.620;9.828;2024-02-26T13:44:59;2.80;;;1.98;;
54408;SDS011;40315;48.620;9.828;2024-02-26T13:47:26;2.88;;;2.60;;
54408;SDS011;40315;48.620;9.828;2024-02-26T13:49:53;3.03;;;2.63;;
54408;SDS011;40315;48.620;9.828;2024-02-26T13:52:21;3.58;;;2.90;;
54408;SDS011;40315;48.620;9.828;2024-02-26T13:54:50;3.78;;;2.45;;
54408;SDS011;40315;48.620;9.828;2024-02-26T13:57:17;2.90;;;2.60;;
54408;SDS011;40315;48.620;9.828;2024-02-26T13:59:45;3.35;;;2.80;;
54408;SDS011;40315;48.620;9.828;2024-02-26T14:02:13;6.70;;;3.28;;
54408;SDS011;40315;48.620;9.828;2024-02-26T14:04:42;6.07;;;3.25;;
54408;SDS011;40315;48.620;9.828;2024-02-26T14:07:10;5.07;;;3.15;;
54408;SDS011;40315;48.620;9.828;2024-02-26T14:09:38;3.17;;;2.80;;
54408;SDS011;40315;48.620;9.828;2024-02-26T14:12:06;4.07;;;2.65;;
54408;SDS011;40315;48.620;9.828;2024-02-26T14:14:34;3.65;;;3.17;;
54408;SDS011;40315;48.620;9.828;2024-02-26T14:17:03;4.50;;;3.20;;
54408;SDS011;40315;48.620;9.828;2024-02-26T14:19:31;4.97;;;3.15;;
54408;SDS011;40315;48.620;9.828;2024-02-26T14:21:58;3.75;;;2.72;;
54408;SDS011;40315;48.620;9.828;2024-02-26T14:24:27;3.95;;;3.10;;
54408;SDS011;40315;48.620;9.828;2024-02-26T14:26:54;3.25;;;2.40;;
54408;SDS011;40315;48.620;9.828;2024-02-26T14:29:22;5.55;;;3.63;;
54408;SDS011;40315;48.620;9.828;2024-02-26T14:31:50;4.35;;;3.13;;
54408;SDS011;40315;48.620;9.828;2024-02-26T14:34:17;4.20;;;2.13;;
54408;SDS011;40315;48.620;9.828;2024-02-26T14:36:44;3.35;;;2.70;;
54408;SDS011;40315;48.620;9.828;2024-02-26T14:39:14;2.90;;;2.60;;
54408;SDS011;40315;48.620;9.828;2024-02-26T14:41:41;4.25;;;2.47;;
54408;SDS011;40315;48.620;9.828;2024-02-26T14:44:08;3.97;;;2.30;;
54408;SDS011;40315;48.620;9.828;2024-02-26T14:46:37;3.67;;;2.60;;
54408;SDS011;40315;48.620;9.828;2024-02-26T14:49:04;3.33;;;2.70;;
54408;SDS011;40315;48.620;9.828;2024-02-26T14:51:31;3.45;;;2.65;;
54408;SDS011;40315;48.620;9.828;2024-02-26T14:53:58;3.50;;;2.53;;
54408;SDS011;40315;48.620;9.828;2024-02-26T14:56:27;4.57;;;2.70;;
54408;SDS011;40315;48.620;9.828;2024-02-26T14:58:56;3.38;;;2.40;;
54408;SDS011;40315;48.620;9.828;2024-02-26T15:01:23;3.65;;;2.40;;